METAR Data
IDs: Format: Raw Decoded Include TAF

Data at: 2147 UTC 01 Dec 2021

METAR for:KVES (Versailles/Darke Cnt, OH, US)
Text:KVES 012130Z AUTO 14009KT 7SM BKN005 BKN009 OVC023 05/05 A2983 RMK AO2
Temperature: 5.0°C ( 41°F)
Dewpoint: 5.0°C ( 41°F) [RH = 100%]
Pressure (altimeter):29.83 inches Hg (1010.2 mb)
Winds:from the SE (140 degrees) at 10 MPH (9 knots; 4.6 m/s)
Visibility: 7 sm ( 11 km)
Ceiling:500 feet AGL
Clouds: broken clouds at 500 feet AGL, broken clouds at 900 feet AGL, overcast cloud deck at 2300 feet AGL
QC Flag:automated observation with no human augmentation